Time;durP1;ratioP1;P1;durP2;ratioP2;P2;SDS_P1;SDS_P2;PMS_P1;PMS_P2;Temp;Humidity;BMP_temperature;BMP_pressure;BME280_temperature;BME280_humidity;BME280_pressure;Samples;Min_cycle;Max_cycle;Signal;HPM_P1;HPM_P2
2022/11/01 00:01:38;;;;;;;12.30;6.97;;;;;;;12.59;100.00;99039.91;5097989;28;20564;-63
2022/11/01 00:04:03;;;;;;;13.70;7.20;;;;;;;12.66;100.00;99038.34;5091335;28;20032;-62
2022/11/01 00:06:29;;;;;;;13.18;7.10;;;;;;;12.62;100.00;99042.22;5094865;28;20028;-62
2022/11/01 00:08:54;;;;;;;16.42;7.47;;;;;;;12.50;100.00;99037.22;5098262;28;20028;-62
2022/11/01 00:11:20;;;;;;;14.05;6.45;;;;;;;12.62;100.00;99037.00;5094781;28;20027;-62
2022/11/01 00:13:47;;;;;;;13.35;6.95;;;;;;;12.70;100.00;99029.25;5091529;28;20553;-62
2022/11/01 00:16:13;;;;;;;14.23;7.10;;;;;;;12.67;100.00;99029.56;5094566;28;20042;-61
2022/11/01 00:18:39;;;;;;;13.55;6.22;;;;;;;12.68;100.00;99039.03;5082478;28;20028;-63
2022/11/01 00:21:04;;;;;;;15.77;6.70;;;;;;;12.68;100.00;99029.41;5096194;28;20059;-62
2022/11/01 00:23:30;;;;;;;13.38;6.03;;;;;;;12.78;100.00;99034.56;5093931;28;20102;-62
2022/11/01 00:25:59;;;;;;;11.75;6.30;;;;;;;12.81;100.00;99017.78;5092354;28;20097;-62
2022/11/01 00:28:25;;;;;;;;;;;;;;;12.83;100.00;99019.28;5093424;28;20435;-62
2022/11/01 00:30:52;;;;;;;13.00;6.15;;;;;;;12.71;100.00;99027.50;5096683;28;19918;-62
2022/11/01 00:33:18;;;;;;;9.93;5.90;;;;;;;12.65;100.00;99016.66;5092310;28;20668;-61
2022/11/01 00:35:45;;;;;;;11.75;6.05;;;;;;;12.67;100.00;99017.34;5095708;28;20035;-62
2022/11/01 00:38:11;;;;;;;14.82;6.18;;;;;;;12.74;100.00;99016.72;5087383;28;20513;-62
2022/11/01 00:40:36;;;;;;;12.73;5.75;;;;;;;12.82;100.00;99022.84;5092587;28;20038;-62
2022/11/01 00:43:01;;;;;;;12.55;5.60;;;;;;;12.83;100.00;99011.47;5090312;28;20026;-62
2022/11/01 00:45:27;;;;;;;15.93;6.35;;;;;;;12.88;100.00;99017.03;5085498;28;20581;-62
2022/11/01 00:47:52;;;;;;;13.93;5.95;;;;;;;12.92;100.00;99028.00;5097119;28;20187;-62
2022/11/01 00:50:18;;;;;;;14.07;6.30;;;;;;;12.83;100.00;99018.44;5069227;28;20539;-62
2022/11/01 00:52:43;;;;;;;12.27;5.88;;;;;;;12.81;100.00;99030.84;5093965;28;20080;-62
2022/11/01 00:55:09;;;;;;;13.65;6.10;;;;;;;12.72;100.00;99022.09;5082135;28;20028;-62
2022/11/01 00:57:34;;;;;;;14.35;6.38;;;;;;;12.57;100.00;99002.72;5086999;28;20322;-62
2022/11/01 00:59:59;;;;;;;15.45;6.50;;;;;;;12.73;100.00;99028.16;5100342;28;20130;-62
2022/11/01 01:02:25;;;;;;;13.38;6.18;;;;;;;12.68;100.00;99026.78;5097691;28;20142;-62
2022/11/01 01:04:50;;;;;;;12.98;6.30;;;;;;;12.70;100.00;99026.66;5101465;28;20036;-62
2022/11/01 01:07:16;;;;;;;12.88;6.60;;;;;;;12.61;100.00;99025.78;5099955;28;20035;-61
2022/11/01 01:09:42;;;;;;;13.38;5.90;;;;;;;12.48;100.00;99022.69;5090012;28;20026;-60
2022/11/01 01:12:08;;;;;;;14.40;6.53;;;;;;;12.29;100.00;98995.75;5094273;27;20653;-60
2022/11/01 01:14:34;;;;;;;16.05;6.53;;;;;;;12.35;100.00;99003.97;5099257;28;20028;-60
2022/11/01 01:16:59;;;;;;;14.25;6.82;;;;;;;12.58;100.00;99036.50;5096487;28;20055;-61
2022/11/01 01:19:25;;;;;;;11.55;6.70;;;;;;;12.12;100.00;99001.75;5076374;28;20032;-60
2022/11/01 01:21:50;;;;;;;13.48;7.70;;;;;;;12.47;100.00;99040.13;5094357;28;20410;-61
2022/11/01 01:24:15;;;;;;;15.55;7.15;;;;;;;12.26;100.00;99005.66;5092649;28;20031;-60
2022/11/01 01:26:41;;;;;;;16.55;7.47;;;;;;;12.25;100.00;99033.53;5069749;28;20323;-61
2022/11/01 01:29:06;;;;;;;11.27;6.68;;;;;;;12.30;100.00;99038.28;5095495;28;20821;-61
2022/11/01 01:31:31;;;;;;;13.13;7.28;;;;;;;12.37;100.00;99034.13;5097190;28;20028;-61
2022/11/01 01:33:57;;;;;;;15.77;7.07;;;;;;;12.38;100.00;99029.75;5099007;27;20432;-61
2022/11/01 01:36:22;;;;;;;12.57;7.03;;;;;;;12.28;100.00;99027.19;5101548;28;20036;-60
2022/11/01 01:38:51;;;;;;;13.57;6.93;;;;;;;12.28;100.00;99024.56;5114078;27;20631;-61
2022/11/01 01:44:02;;;;;;;13.10;7.00;;;;;;;12.10;100.00;99011.50;5097735;28;20038;-61
2022/11/01 01:46:27;;;;;;;14.23;7.00;;;;;;;12.24;100.00;99011.00;5092528;27;20032;-60
2022/11/01 01:48:56;;;;;;;13.60;6.20;;;;;;;12.30;100.00;99014.81;5090614;28;20544;-61
2022/11/01 01:51:24;;;;;;;15.50;7.10;;;;;;;12.18;100.00;99009.00;5090813;28;20818;-61
2022/11/01 01:53:52;;;;;;;13.30;7.15;;;;;;;12.26;100.00;99022.09;5077303;28;20081;-61
2022/11/01 01:56:35;;;;;;;12.00;7.40;;;;;;;12.30;100.00;99017.41;5099678;27;20970;-61
2022/11/01 01:59:06;;;;;;;13.02;7.00;;;;;;;12.15;100.00;99004.06;5097786;28;20028;-61
2022/11/01 02:01:34;;;;;;;13.43;6.85;;;;;;;12.18;100.00;99023.81;5092666;28;20028;-61
2022/11/01 02:04:00;;;;;;;10.35;6.63;;;;;;;12.15;100.00;99024.09;5122846;27;20028;-59
2022/11/01 02:06:26;;;;;;;14.82;7.00;;;;;;;12.14;100.00;99017.22;5100500;28;20031;-58
2022/11/01 02:08:54;;;;;;;12.75;6.93;;;;;;;12.06;100.00;98989.28;5094011;28;20130;-61
2022/11/01 02:11:20;;;;;;;14.10;6.68;;;;;;;12.11;100.00;99007.94;5093394;28;20020;-62
2022/11/01 02:13:45;;;;;;;12.82;6.50;;;;;;;12.09;100.00;99013.28;5075508;28;20089;-62
2022/11/01 02:16:26;;;;;;;17.05;7.07;;;;;;;12.14;100.00;99012.88;5092292;28;20039;-62
2022/11/01 02:19:22;;;;;;;13.60;7.07;;;;;;;11.79;100.00;98964.00;5094921;28;20028;-61
2022/11/01 02:21:57;;;;;;;10.98;6.18;;;;;;;12.08;100.00;99008.22;5095538;28;20081;-62
2022/11/01 02:24:47;;;;;;;15.70;7.28;;;;;;;11.69;100.00;98967.47;5095511;28;20035;-61
2022/11/01 02:27:24;;;;;;;11.27;6.20;;;;;;;12.02;100.00;98995.75;5094045;28;20516;-62
2022/11/01 02:30:04;;;;;;;13.68;7.00;;;;;;;11.76;100.00;98953.91;5092416;27;20032;-61
2022/11/01 02:32:49;;;;;;;12.32;6.38;;;;;;;11.89;100.00;98993.47;5095510;28;20056;-62
2022/11/01 02:35:29;;;;;;;13.35;6.57;;;;;;;11.93;100.00;98974.81;5099528;28;20493;-62
2022/11/01 02:38:02;;;;;;;10.55;6.55;;;;;;;12.02;100.00;98986.16;5100314;27;20019;-62
2022/11/01 02:40:37;;;;;;;13.15;6.97;;;;;;;12.05;100.00;98983.25;5090199;28;20502;-62
2022/11/01 02:43:09;;;;;;;15.18;6.55;;;;;;;12.12;100.00;98986.13;5086201;28;20031;-62
2022/11/01 02:45:37;;;;;;;12.18;7.38;;;;;;;12.12;100.00;98986.13;5087358;28;20028;-62
2022/11/01 02:48:04;;;;;;;13.68;6.13;;;;;;;12.17;100.00;98988.28;5112488;27;20112;-62
2022/11/01 02:50:35;;;;;;;12.25;6.63;;;;;;;12.05;100.00;98988.47;5092004;28;20016;-62
2022/11/01 02:53:01;;;;;;;13.63;6.47;;;;;;;11.89;100.00;98994.28;5068558;28;20036;-62
2022/11/01 02:55:30;;;;;;;13.38;7.25;;;;;;;11.88;100.00;99013.50;5113109;27;20513;-62
2022/11/01 02:58:04;;;;;;;15.15;7.05;;;;;;;11.94;100.00;99017.34;5095770;28;20594;-62
2022/11/01 03:00:32;;;;;;;12.65;6.47;;;;;;;11.71;100.00;99006.41;5094352;28;20016;-61
2022/11/01 03:03:04;;;;;;;14.27;6.45;;;;;;;11.84;100.00;99016.50;5090589;27;20173;-62
2022/11/01 03:05:40;;;;;;;13.75;7.00;;;;;;;11.96;100.00;99017.19;5086236;28;20024;-62
2022/11/01 03:08:08;;;;;;;11.82;6.22;;;;;;;11.64;100.00;98977.50;5097393;28;20514;-62
2022/11/01 03:10:42;;;;;;;12.68;6.22;;;;;;;11.84;100.00;99013.91;5092434;28;20035;-62
2022/11/01 03:13:40;;;;;;;11.00;5.90;;;;;;;11.93;100.00;99013.88;5097427;28;20031;-62
2022/11/01 03:16:34;;;;;;;10.18;6.13;;;;;;;11.81;100.00;99011.56;5053070;28;20091;-62
2022/11/01 03:19:31;;;;;;;14.55;6.75;;;;;;;11.91;100.00;99005.41;5070556;27;20066;-62
2022/11/01 03:22:13;;;;;;;11.50;6.40;;;;;;;11.98;100.00;99000.44;5087494;28;20024;-62
2022/11/01 03:24:48;;;;;;;11.52;6.45;;;;;;;12.03;100.00;99003.44;5086189;28;20032;-63
2022/11/01 03:27:19;;;;;;;12.65;6.07;;;;;;;12.07;100.00;99003.97;5105809;27;20035;-62
2022/11/01 03:29:55;;;;;;;13.90;6.70;;;;;;;11.97;100.00;98993.56;5086345;28;20044;-62
2022/11/01 03:32:22;;;;;;;11.77;6.85;;;;;;;12.02;100.00;99004.41;5078165;28;20039;-62
2022/11/01 03:34:48;;;;;;;10.32;6.35;;;;;;;12.03;100.00;99008.66;5080360;28;20639;-62
2022/11/01 03:37:14;;;;;;;11.48;6.18;;;;;;;12.02;100.00;99014.81;5093355;27;20032;-65
2022/11/01 03:39:39;;;;;;;13.65;6.70;;;;;;;12.06;100.00;99015.34;5104740;27;20031;-62
2022/11/01 03:42:08;;;;;;;13.55;7.25;;;;;;;12.07;100.00;99015.22;5095815;28;20024;-63
2022/11/01 03:44:38;;;;;;;12.93;7.20;;;;;;;12.07;100.00;99019.63;5088778;28;20027;-62
2022/11/01 03:47:04;;;;;;;13.50;6.88;;;;;;;12.08;100.00;99021.25;5090051;28;20027;-62
2022/11/01 03:49:29;;;;;;;14.52;6.90;;;;;;;12.11;100.00;99018.34;5107805;27;20027;-62
2022/11/01 03:51:54;;;;;;;14.18;7.32;;;;;;;12.07;100.00;99006.59;5088136;28;20458;-62
2022/11/01 03:54:20;;;;;;;12.55;7.03;;;;;;;12.11;100.00;99023.56;5094906;28;20050;-63
2022/11/01 03:56:45;;;;;;;11.10;6.25;;;;;;;12.19;100.00;99031.47;5092212;28;20027;-62
2022/11/01 03:59:11;;;;;;;11.52;6.97;;;;;;;12.19;100.00;99021.03;5094661;28;20436;-62
2022/11/01 04:01:36;;;;;;;14.65;7.18;;;;;;;12.14;100.00;99025.06;5091935;28;20040;-62
2022/11/01 04:04:02;;;;;;;11.90;5.90;;;;;;;12.13;100.00;99032.06;5094897;28;20028;-62
2022/11/01 04:06:27;;;;;;;15.57;6.20;;;;;;;12.09;100.00;99028.91;5092226;28;20038;-62
2022/11/01 04:08:53;;;;;;;14.27;6.63;;;;;;;11.98;100.00;99007.44;5096725;28;20714;-62
2022/11/01 04:11:18;;;;;;;16.27;6.90;;;;;;;11.98;100.00;98997.84;5089397;28;20048;-62
2022/11/01 04:13:46;;;;;;;10.68;6.65;;;;;;;12.20;100.00;99027.91;5091774;28;20107;-63
2022/11/01 04:21:39;;;;;;;14.80;6.93;;;;;;;11.88;100.00;99036.94;5094697;28;20073;-62
2022/11/01 04:24:05;;;;;;;14.15;6.72;;;;;;;11.92;100.00;99025.28;5123484;27;20049;-62
2022/11/01 04:26:30;;;;;;;14.05;6.68;;;;;;;12.04;100.00;99032.91;5089368;28;20027;-62
2022/11/01 04:28:56;;;;;;;13.57;6.25;;;;;;;12.04;100.00;99027.72;5092985;28;20084;-62
2022/11/01 04:31:22;;;;;;;13.07;6.40;;;;;;;11.91;100.00;99001.97;5083800;28;20115;-62
2022/11/01 04:33:48;;;;;;;10.60;5.85;;;;;;;11.86;100.00;98997.16;5088744;28;20020;-62
2022/11/01 04:36:13;;;;;;;13.18;6.13;;;;;;;12.06;100.00;99028.38;5096203;28;20035;-62
2022/11/01 04:38:39;;;;;;;12.20;6.53;;;;;;;12.03;100.00;99016.47;5098335;28;20023;-63
2022/11/01 04:41:04;;;;;;;13.00;6.43;;;;;;;11.91;100.00;98999.38;5096321;27;20842;-62
2022/11/01 04:43:30;;;;;;;12.98;5.78;;;;;;;12.16;100.00;99016.13;5101309;28;20126;-62
2022/11/01 04:45:55;;;;;;;13.23;7.00;;;;;;;12.25;100.00;99015.28;5095611;27;20032;-62
2022/11/01 04:48:21;;;;;;;10.15;5.68;;;;;;;12.27;100.00;99028.16;5097473;27;20031;-62
2022/11/01 04:50:46;;;;;;;11.75;6.32;;;;;;;12.30;100.00;99028.69;5086886;28;20831;-61
2022/11/01 04:53:12;;;;;;;11.10;6.00;;;;;;;12.34;100.00;99029.22;5091502;28;20038;-62
2022/11/01 04:55:38;;;;;;;11.75;6.35;;;;;;;12.38;100.00;99024.53;5090569;28;20032;-62
2022/11/01 04:58:05;;;;;;;12.40;6.10;;;;;;;12.40;100.00;99028.63;5133593;27;20031;-62
2022/11/01 05:00:34;;;;;;;11.57;5.90;;;;;;;12.31;100.00;99025.09;5114883;27;20059;-61
2022/11/01 05:03:01;;;;;;;10.35;6.20;;;;;;;12.08;100.00;98996.03;5115774;27;20027;-62
2022/11/01 05:05:27;;;;;;;12.15;6.78;;;;;;;12.26;100.00;99034.31;5091703;28;20036;-63
2022/11/01 05:08:02;;;;;;;14.82;6.60;;;;;;;12.05;100.00;99003.31;5094179;28;20047;-62
2022/11/01 05:10:28;;;;;;;13.48;6.70;;;;;;;12.29;100.00;99036.66;5079666;28;20412;-62
2022/11/01 05:12:53;;;;;;;11.10;5.60;;;;;;;12.19;100.00;99035.88;5099761;28;20036;-62
2022/11/01 05:15:18;;;;;;;12.43;6.40;;;;;;;12.16;100.00;99037.00;5092546;28;20099;-62
2022/11/01 05:17:44;;;;;;;15.40;5.85;;;;;;;12.04;100.00;99027.72;5096385;27;20024;-62
2022/11/01 05:20:10;;;;;;;11.10;6.15;;;;;;;12.23;100.00;99032.00;5106292;27;20051;-63
2022/11/01 05:22:35;;;;;;;11.85;6.53;;;;;;;12.06;100.00;98997.91;5098974;28;20032;-62
2022/11/01 05:25:01;;;;;;;13.20;5.45;;;;;;;12.26;100.00;99042.16;5091588;28;20032;-62
2022/11/01 05:27:26;;;;;;;13.80;6.63;;;;;;;12.25;100.00;99038.72;5094309;28;20162;-62
2022/11/01 05:29:51;;;;;;;11.02;5.63;;;;;;;12.04;100.00;99033.75;5095644;28;20034;-62
2022/11/01 05:32:17;;;;;;;13.52;6.00;;;;;;;12.09;100.00;99028.09;5094196;28;20112;-62
2022/11/01 05:34:42;;;;;;;12.30;6.30;;;;;;;11.93;100.00;99023.50;5099807;28;20023;-62
2022/11/01 05:37:09;;;;;;;11.20;5.70;;;;;;;12.13;100.00;99032.06;5081271;28;20474;-62
2022/11/01 05:39:34;;;;;;;13.80;6.50;;;;;;;12.03;100.00;99032.13;5091793;28;20032;-62
2022/11/01 05:42:00;;;;;;;11.30;6.25;;;;;;;12.13;100.00;99026.03;5100696;28;20047;-62
2022/11/01 05:44:25;;;;;;;12.15;5.40;;;;;;;12.15;100.00;99021.50;5086482;28;20034;-62
2022/11/01 05:46:50;;;;;;;11.20;5.68;;;;;;;12.30;100.00;99025.25;5100832;28;20031;-62
2022/11/01 05:49:16;;;;;;;13.77;5.97;;;;;;;12.37;100.00;99026.31;5091457;27;20115;-60
2022/11/01 05:51:41;;;;;;;12.48;5.80;;;;;;;12.37;100.00;99023.69;5093152;27;20512;-62
2022/11/01 05:54:07;;;;;;;10.95;5.15;;;;;;;12.33;100.00;99009.31;5099807;28;20031;-63
2022/11/01 05:56:32;;;;;;;12.02;5.82;;;;;;;12.29;100.00;98998.34;5098501;28;20088;-62
2022/11/01 05:58:58;;;;;;;14.07;5.40;;;;;;;12.52;100.00;99017.97;5093425;28;20115;-62
2022/11/01 06:01:23;;;;;;;10.52;5.07;;;;;;;12.44;100.00;99011.72;5099109;28;20027;-62
2022/11/01 06:03:49;;;;;;;10.68;5.25;;;;;;;12.56;100.00;99033.22;5095302;28;20042;-62
2022/11/01 06:06:14;;;;;;;9.82;4.78;;;;;;;12.62;100.00;99019.56;5093291;28;20035;-62
2022/11/01 06:08:39;;;;;;;11.30;5.38;;;;;;;12.67;100.00;99014.72;5089511;28;20838;-62
2022/11/01 06:11:06;;;;;;;10.27;4.90;;;;;;;12.48;100.00;98978.34;5123547;27;20054;-63
2022/11/01 06:13:32;;;;;;;12.45;4.60;;;;;;;12.86;100.00;99007.72;5100300;28;20032;-62
2022/11/01 06:16:01;;;;;;;8.00;3.92;;;;;;;12.84;100.00;99007.88;5094657;28;20914;-63
2022/11/01 06:18:27;;;;;;;10.63;3.95;;;;;;;12.71;100.00;98988.34;5097314;28;20053;-62
2022/11/01 06:20:52;;;;;;;11.43;4.60;;;;;;;12.87;100.00;98991.91;5094886;28;20565;-62
2022/11/01 06:23:18;;;;;;;8.25;3.90;;;;;;;12.88;100.00;99009.19;5115835;27;20042;-62
2022/11/01 06:25:43;;;;;;;9.38;3.90;;;;;;;12.80;100.00;98980.44;5089953;28;20039;-62
2022/11/01 06:28:09;;;;;;;9.57;4.40;;;;;;;13.03;100.00;99016.50;5094790;28;20024;-62
2022/11/01 06:30:34;;;;;;;10.43;3.85;;;;;;;13.04;100.00;99011.13;5091703;28;20509;-63
2022/11/01 06:33:00;;;;;;;9.95;4.13;;;;;;;13.00;100.00;99007.19;5092054;28;20093;-63
2022/11/01 06:35:26;;;;;;;10.90;3.97;;;;;;;13.07;100.00;99023.91;5089585;28;20035;-62
2022/11/01 06:37:53;;;;;;;8.40;3.78;;;;;;;13.03;100.00;99025.19;5096851;28;20034;-63
2022/11/01 06:40:18;;;;;;;12.07;3.80;;;;;;;13.06;100.00;99027.47;5090983;28;20035;-62
2022/11/01 06:42:43;;;;;;;12.15;4.38;;;;;;;13.06;100.00;99050.97;5090863;28;20031;-62
2022/11/01 06:45:09;;;;;;;9.68;3.90;;;;;;;13.12;100.00;99064.41;5070276;28;20507;-62
2022/11/01 06:47:34;;;;;;;12.73;4.10;;;;;;;12.78;100.00;99005.88;5094137;28;20081;-61
2022/11/01 06:50:00;;;;;;;13.75;4.22;;;;;;;12.99;100.00;99047.31;5111143;27;20458;-62
2022/11/01 06:52:25;;;;;;;8.45;4.72;;;;;;;13.03;100.00;99045.22;5094271;28;20028;-62
2022/11/01 06:54:51;;;;;;;10.00;4.55;;;;;;;13.17;100.00;99065.59;5094907;28;20027;-62
2022/11/01 06:57:16;;;;;;;10.10;4.47;;;;;;;13.20;100.00;99078.34;5089790;28;20031;-62
2022/11/01 06:59:42;;;;;;;12.27;5.43;;;;;;;13.24;100.00;99073.66;5092375;27;20034;-62
2022/11/01 07:02:08;;;;;;;9.70;4.57;;;;;;;13.15;100.00;99070.13;5095458;28;20104;-62
2022/11/01 07:04:35;;;;;;;10.85;4.72;;;;;;;13.01;100.00;99032.31;5113350;27;20466;-62
2022/11/01 07:07:01;;;;;;;12.93;5.00;;;;;;;12.93;100.00;99049.72;5082393;28;20477;-63
2022/11/01 07:09:26;;;;;;;9.27;4.55;;;;;;;13.17;100.00;99075.22;5090208;28;20027;-63
2022/11/01 07:11:52;;;;;;;12.98;4.90;;;;;;;13.08;100.00;99053.44;5090124;28;20032;-62
2022/11/01 07:14:17;;;;;;;11.68;4.97;;;;;;;13.05;100.00;99046.72;5089152;28;20023;-62
2022/11/01 07:16:43;;;;;;;13.20;4.63;;;;;;;13.28;100.00;99088.03;5093420;28;20449;-61
2022/11/01 07:19:08;;;;;;;11.20;4.75;;;;;;;13.34;100.00;99090.06;5098918;28;20019;-62
2022/11/01 07:21:34;;;;;;;10.73;5.43;;;;;;;13.32;100.00;99099.84;5108542;27;20054;-62
2022/11/01 07:23:59;;;;;;;9.00;4.60;;;;;;;13.28;100.00;99094.06;5090066;28;20059;-62
2022/11/01 07:26:25;;;;;;;10.55;5.00;;;;;;;13.32;100.00;99085.97;5093518;28;20065;-62
2022/11/01 07:28:50;;;;;;;11.10;5.13;;;;;;;13.33;100.00;99098.06;5088632;28;20028;-62
2022/11/01 07:31:15;;;;;;;13.25;5.22;;;;;;;13.35;100.00;99096.13;5090834;28;20040;-62
2022/11/01 07:33:41;;;;;;;9.05;4.88;;;;;;;13.36;100.00;99097.75;5086482;27;20028;-62
2022/11/01 07:36:07;;;;;;;11.30;5.70;;;;;;;13.40;100.00;99097.31;5109603;27;20119;-62
2022/11/01 07:38:32;;;;;;;11.18;5.00;;;;;;;13.39;100.00;99100.06;5106371;27;20023;-62
2022/11/01 07:41:05;;;;;;;12.63;5.20;;;;;;;13.38;100.00;99111.47;5091236;28;20770;-62
2022/11/01 07:43:30;;;;;;;9.00;4.53;;;;;;;13.40;100.00;99117.41;5086803;27;20085;-62
2022/11/01 07:45:59;;;;;;;10.25;4.60;;;;;;;13.44;100.00;99116.13;5090956;28;20403;-62
2022/11/01 07:48:25;;;;;;;9.85;4.55;;;;;;;13.17;100.00;99086.47;5081777;28;20058;-63
2022/11/01 07:50:54;;;;;;;11.65;5.03;;;;;;;13.34;100.00;99120.59;5106799;27;20367;-62
2022/11/01 07:53:20;;;;;;;10.82;4.97;;;;;;;13.38;100.00;99130.59;5090217;28;20020;-62
2022/11/01 07:55:46;;;;;;;12.32;5.22;;;;;;;13.33;100.00;99103.31;5094929;28;20028;-62
2022/11/01 07:58:12;;;;;;;11.85;4.63;;;;;;;13.55;100.00;99126.34;5107762;27;20032;-63
2022/11/01 08:00:38;;;;;;;8.70;5.35;;;;;;;13.51;100.00;99130.22;5107297;27;20050;-62
2022/11/01 08:03:09;;;;;;;9.88;5.40;;;;;;;13.50;100.00;99123.34;5090455;28;20031;-61
2022/11/01 08:05:35;;;;;;;11.13;5.22;;;;;;;13.58;100.00;99127.81;5089325;28;20031;-61
2022/11/01 08:08:01;;;;;;;11.23;5.40;;;;;;;13.56;100.00;99141.06;5106907;27;20042;-62
2022/11/01 08:10:28;;;;;;;9.80;4.93;;;;;;;13.59;100.00;99138.13;5090049;28;20458;-61
2022/11/01 08:13:17;;;;;;;10.52;5.43;;;;;;;13.39;100.00;99103.50;5096399;28;20097;-61
2022/11/01 08:15:43;;;;;;;8.80;5.10;;;;;;;13.42;100.00;99102.41;5079543;28;20031;-61
2022/11/01 08:18:08;;;;;;;12.43;5.68;;;;;;;13.60;100.00;99144.19;5110160;27;20040;-61
2022/11/01 08:20:34;;;;;;;11.70;5.72;;;;;;;13.55;100.00;99131.56;5097533;28;20032;-61
2022/11/01 08:23:00;;;;;;;10.57;5.53;;;;;;;13.59;100.00;99143.34;5092725;28;20844;-61
2022/11/01 08:25:25;;;;;;;8.55;4.97;;;;;;;13.58;100.00;99139.09;5093524;28;20368;-61
2022/11/01 08:27:51;;;;;;;11.55;5.68;;;;;;;13.63;100.00;99141.25;5077991;28;20020;-61
2022/11/01 08:30:17;;;;;;;14.30;5.80;;;;;;;13.58;100.00;99140.88;5092063;28;20682;-61
2022/11/01 08:32:43;;;;;;;9.88;5.47;;;;;;;13.57;100.00;99126.19;5092849;28;20034;-62
2022/11/01 08:35:10;;;;;;;8.07;4.75;;;;;;;13.62;100.00;99122.13;5104946;27;20052;-61
2022/11/01 08:37:36;;;;;;;12.30;5.28;;;;;;;13.63;100.00;99126.41;5094960;28;20035;-62
2022/11/01 08:40:02;;;;;;;13.65;5.47;;;;;;;13.69;100.00;99145.88;5096717;28;20433;-62
2022/11/01 08:42:27;;;;;;;10.93;5.97;;;;;;;13.70;100.00;99142.28;5095477;28;20115;-62
2022/11/01 08:44:53;;;;;;;9.25;5.38;;;;;;;13.56;100.00;99111.47;5105513;28;20062;-61
2022/11/01 08:47:18;;;;;;;16.13;6.50;;;;;;;13.74;100.00;99142.81;5113053;28;20092;-61
2022/11/01 08:49:44;;;;;;;14.75;5.68;;;;;;;13.73;100.00;99149.84;5107168;28;20069;-62
2022/11/01 08:52:10;;;;;;;10.43;5.13;;;;;;;13.78;100.00;99147.59;5096544;28;20084;-62
2022/11/01 08:54:36;;;;;;;10.35;4.15;;;;;;;13.64;100.00;99116.78;5097921;28;20120;-62
2022/11/01 08:57:02;;;;;;;8.60;3.92;;;;;;;13.69;100.00;99150.28;5099415;28;20507;-62
2022/11/01 08:59:27;;;;;;;12.18;4.68;;;;;;;13.69;100.00;99148.50;5110504;28;20032;-61
2022/11/01 09:01:53;;;;;;;10.48;5.22;;;;;;;13.75;100.00;99162.75;5094882;28;20028;-62
2022/11/01 09:04:19;;;;;;;10.35;3.53;;;;;;;13.76;100.00;99160.00;5074532;28;20532;-62
2022/11/01 09:06:44;;;;;;;10.95;4.65;;;;;;;13.79;100.00;99161.47;5097348;28;20103;-62
2022/11/01 09:09:10;;;;;;;10.27;3.78;;;;;;;13.82;100.00;99163.78;5094140;28;20397;-63
2022/11/01 09:11:35;;;;;;;8.20;4.18;;;;;;;13.75;100.00;99162.75;5108779;28;20441;-63
2022/11/01 09:14:01;;;;;;;10.40;3.83;;;;;;;13.76;100.00;99177.44;5079404;28;20051;-63
2022/11/01 09:16:27;;;;;;;12.95;4.05;;;;;;;13.79;100.00;99185.81;5095511;28;20575;-63
2022/11/01 09:18:52;;;;;;;11.02;3.63;;;;;;;13.75;100.00;99192.31;5080042;28;20051;-63
2022/11/01 09:21:18;;;;;;;10.82;4.68;;;;;;;13.65;100.00;99192.41;5095989;28;20027;-63
2022/11/01 09:23:45;;;;;;;8.93;4.07;;;;;;;13.74;100.00;99190.66;5096736;28;20477;-64
2022/11/01 09:26:11;;;;;;;12.35;4.15;;;;;;;13.72;100.00;99197.81;5098696;28;20043;-63
2022/11/01 09:28:37;;;;;;;11.10;4.30;;;;;;;13.74;100.00;99195.88;5087495;27;20032;-64
2022/11/01 09:31:04;;;;;;;11.30;4.28;;;;;;;13.82;100.00;99208.22;5081153;28;20032;-65
2022/11/01 09:33:31;;;;;;;11.30;5.47;;;;;;;13.84;100.00;99204.47;5098713;28;20027;-63
2022/11/01 09:35:57;;;;;;;11.27;4.53;;;;;;;13.87;100.00;99203.34;5079125;28;20039;-63
2022/11/01 09:38:23;;;;;;;13.23;5.07;;;;;;;13.83;100.00;99205.44;5099481;28;20470;-62
2022/11/01 09:41:01;;;;;;;14.63;7.22;;;;;;;13.91;100.00;99194.25;5100518;28;20114;-63
2022/11/01 09:43:28;;;;;;;15.60;7.40;;;;;;;13.84;100.00;99201.84;5096130;28;20402;-62
2022/11/01 09:45:57;;;;;;;12.02;5.70;;;;;;;13.92;100.00;99208.94;5094043;28;20028;-64
2022/11/01 09:48:25;;;;;;;14.00;5.63;;;;;;;13.70;100.00;99180.66;5098294;28;20390;-64
2022/11/01 09:50:53;;;;;;;12.73;5.35;;;;;;;13.87;100.00;99198.09;5097194;28;20063;-63
2022/11/01 09:53:27;;;;;;;10.48;4.30;;;;;;;13.95;100.00;99197.38;5099143;28;20027;-63
2022/11/01 09:56:26;;;;;;;9.05;4.07;;;;;;;13.96;100.00;99196.38;5098012;27;20035;-62
2022/11/01 09:59:17;;;;;;;10.77;4.30;;;;;;;13.95;100.00;99198.19;5091408;27;20036;-62
2022/11/01 10:02:13;;;;;;;16.02;4.85;;;;;;;13.88;100.00;99189.31;5090562;27;20055;-63
2022/11/01 10:04:59;;;;;;;8.75;4.15;;;;;;;13.98;100.00;99192.66;5079795;28;20051;-67
2022/11/01 10:07:34;;;;;;;11.40;4.43;;;;;;;13.88;100.00;99188.50;5078466;28;20165;-62
2022/11/01 10:10:37;;;;;;;12.13;4.22;;;;;;;13.93;100.00;99187.06;5108747;27;20020;-62
2022/11/01 10:13:21;;;;;;;11.30;3.90;;;;;;;13.75;100.00;99149.69;5119886;27;20179;-62
2022/11/01 10:15:55;;;;;;;9.63;3.67;;;;;;;13.95;100.00;99179.88;5099873;28;20024;-61
2022/11/01 10:18:29;;;;;;;9.77;3.38;;;;;;;13.88;100.00;99183.25;5101409;27;20032;-61
2022/11/01 10:20:56;;;;;;;10.90;5.18;;;;;;;13.94;100.00;99193.09;5090174;28;20129;-61
2022/11/01 10:23:39;;;;;;;18.92;9.13;;;;;;;13.93;100.00;99192.28;5101248;28;20027;-61
2022/11/01 10:26:05;;;;;;;15.60;7.57;;;;;;;13.94;100.00;99178.22;5089538;28;20035;-61
2022/11/01 10:28:42;;;;;;;9.63;4.00;;;;;;;13.74;100.00;99151.44;5096712;28;20063;-61
2022/11/01 10:31:16;;;;;;;9.65;4.60;;;;;;;13.96;100.00;99173.69;5107557;27;20028;-61
2022/11/01 10:34:03;;;;;;;10.68;4.22;;;;;;;13.98;100.00;99173.53;5103022;27;20030;-61
2022/11/01 10:36:32;;;;;;;9.27;4.07;;;;;;;13.97;100.00;99175.31;5074895;28;20525;-61
2022/11/01 10:42:20;;;;;;;8.32;3.47;;;;;;;13.99;100.00;99178.59;5094033;28;20035;-61
2022/11/01 10:44:54;;;;;;;8.75;3.95;;;;;;;14.03;100.00;99179.13;5093661;28;20413;-62
2022/11/01 10:47:21;;;;;;;8.25;4.07;;;;;;;13.97;100.00;99188.41;5080102;28;20509;-61
2022/11/01 10:49:54;;;;;;;10.88;4.47;;;;;;;14.04;100.00;99201.69;5099374;27;20027;-61
2022/11/01 10:52:24;;;;;;;10.98;4.00;;;;;;;14.03;100.00;99195.63;5115425;27;20027;-62
2022/11/01 10:54:50;;;;;;;8.27;4.15;;;;;;;14.09;100.00;99188.97;5105077;27;20117;-61
2022/11/01 10:57:37;;;;;;;8.30;3.65;;;;;;;14.11;100.00;99186.19;5098016;28;20035;-62
2022/11/01 11:00:05;;;;;;;7.25;3.35;;;;;;;14.12;100.00;99195.69;5077289;28;20035;-61
2022/11/01 11:02:38;;;;;;;9.25;3.80;;;;;;;14.13;100.00;99195.53;5098141;27;20034;-61
2022/11/01 11:05:04;;;;;;;9.05;3.70;;;;;;;14.13;100.00;99199.97;5090788;28;20031;-60
2022/11/01 11:07:30;;;;;;;6.65;2.88;;;;;;;14.16;100.00;99203.06;5091978;28;20035;-61
2022/11/01 11:09:56;;;;;;;9.70;3.28;;;;;;;14.15;100.00;99200.63;5106855;27;20036;-61
2022/11/01 11:12:23;;;;;;;10.30;3.13;;;;;;;14.17;100.00;99193.44;5093930;28;20031;-61
2022/11/01 11:14:53;;;;;;;10.82;4.70;;;;;;;14.11;100.00;99183.56;5079486;28;20512;-61
2022/11/01 11:17:25;;;;;;;11.90;5.25;;;;;;;14.11;100.00;99191.41;5110585;27;20066;-60
2022/11/01 11:19:54;;;;;;;10.75;4.40;;;;;;;13.94;100.00;99152.09;5106409;27;21915;-61
2022/11/01 11:22:21;;;;;;;10.27;4.50;;;;;;;14.14;100.00;99185.91;5127338;27;20050;-60
2022/11/01 11:24:47;;;;;;;10.35;5.18;;;;;;;14.12;100.00;99172.97;5076725;27;20027;-60
2022/11/01 11:27:18;;;;;;;8.73;4.78;;;;;;;14.19;100.00;99173.19;5109099;27;20043;-62
2022/11/01 11:30:13;;;;;;;12.02;6.13;;;;;;;14.06;100.00;99172.78;5091088;28;20055;-61
2022/11/01 11:32:46;;;;;;;11.10;3.67;;;;;;;13.95;100.00;99155.53;5074380;28;20554;-61
2022/11/01 11:35:16;;;;;;;8.15;3.42;;;;;;;14.08;100.00;99161.19;5099189;28;20020;-60
2022/11/01 11:37:55;;;;;;;10.30;3.53;;;;;;;13.90;100.00;99127.22;5103164;27;20028;-61